sensor_id;sensor_type;location;lat;lon;timestamp;pressure;altitude;pressure_sealevel;temperature;humidity
73240;BME280;61452;40.054;4.110;2023-11-18T00:02:58;102711.56;;;19.93;100.00
73240;BME280;61452;40.054;4.110;2023-11-18T00:08:01;102706.97;;;19.95;100.00
73240;BME280;61452;40.054;4.110;2023-11-18T00:13:03;102716.97;;;19.91;100.00
73240;BME280;61452;40.054;4.110;2023-11-18T00:18:05;102727.63;;;19.91;100.00
73240;BME280;61452;40.054;4.110;2023-11-18T00:23:08;102721.50;;;19.89;100.00
73240;BME280;61452;40.054;4.110;2023-11-18T00:28:11;102723.91;;;19.94;100.00
73240;BME280;61452;40.054;4.110;2023-11-18T00:33:16;102713.53;;;19.89;100.00
73240;BME280;61452;40.054;4.110;2023-11-18T00:38:18;102700.13;;;19.91;100.00
73240;BME280;61452;40.054;4.110;2023-11-18T00:43:21;102708.97;;;19.91;100.00
73240;BME280;61452;40.054;4.110;2023-11-18T00:48:24;102718.22;;;20.00;100.00
73240;BME280;61452;40.054;4.110;2023-11-18T00:53:26;102708.53;;;19.99;100.00
73240;BME280;61452;40.054;4.110;2023-11-18T00:58:28;102707.69;;;19.98;100.00
73240;BME280;61452;40.054;4.110;2023-11-18T01:03:31;102702.59;;;19.94;100.00
73240;BME280;61452;40.054;4.110;2023-11-18T01:08:33;102706.91;;;19.96;100.00
73240;BME280;61452;40.054;4.110;2023-11-18T01:13:35;102720.22;;;19.96;100.00
73240;BME280;61452;40.054;4.110;2023-11-18T01:18:37;102712.31;;;19.95;100.00
73240;BME280;61452;40.054;4.110;2023-11-18T01:23:40;102724.38;;;19.86;100.00
73240;BME280;61452;40.054;4.110;2023-11-18T01:28:44;102724.25;;;19.88;100.00
73240;BME280;61452;40.054;4.110;2023-11-18T01:33:48;102726.69;;;19.92;100.00
73240;BME280;61452;40.054;4.110;2023-11-18T01:38:52;102724.75;;;19.94;100.00
73240;BME280;61452;40.054;4.110;2023-11-18T01:43:57;102730.00;;;19.96;100.00
73240;BME280;61452;40.054;4.110;2023-11-18T01:48:59;102714.38;;;19.90;100.00
73240;BME280;61452;40.054;4.110;2023-11-18T01:54:02;102722.56;;;19.87;100.00
73240;BME280;61452;40.054;4.110;2023-11-18T01:59:07;102712.59;;;19.90;100.00
73240;BME280;61452;40.054;4.110;2023-11-18T02:04:12;102716.19;;;19.89;100.00
73240;BME280;61452;40.054;4.110;2023-11-18T02:09:16;102716.25;;;19.88;100.00
73240;BME280;61452;40.054;4.110;2023-11-18T02:14:30;102716.03;;;19.92;100.00
73240;BME280;61452;40.054;4.110;2023-11-18T02:19:34;102726.16;;;19.86;100.00
73240;BME280;61452;40.054;4.110;2023-11-18T02:24:37;102723.16;;;19.92;100.00
73240;BME280;61452;40.054;4.110;2023-11-18T02:29:42;102732.16;;;19.89;100.00
73240;BME280;61452;40.054;4.110;2023-11-18T02:34:51;102720.56;;;19.90;100.00
73240;BME280;61452;40.054;4.110;2023-11-18T02:40:01;102710.69;;;19.92;100.00
73240;BME280;61452;40.054;4.110;2023-11-18T02:45:07;102711.78;;;19.88;100.00
73240;BME280;61452;40.054;4.110;2023-11-18T02:50:11;102706.38;;;19.90;100.00
73240;BME280;61452;40.054;4.110;2023-11-18T02:55:13;102704.31;;;19.95;100.00
73240;BME280;61452;40.054;4.110;2023-11-18T03:00:15;102709.91;;;19.90;100.00
73240;BME280;61452;40.054;4.110;2023-11-18T03:05:25;102717.03;;;19.90;100.00
73240;BME280;61452;40.054;4.110;2023-11-18T03:10:28;102715.31;;;19.89;100.00
73240;BME280;61452;40.054;4.110;2023-11-18T03:15:32;102704.50;;;19.92;100.00
73240;BME280;61452;40.054;4.110;2023-11-18T03:20:34;102707.84;;;19.95;100.00
73240;BME280;61452;40.054;4.110;2023-11-18T03:25:37;102706.47;;;19.88;100.00
73240;BME280;61452;40.054;4.110;2023-11-18T03:30:40;102713.25;;;19.94;100.00
73240;BME280;61452;40.054;4.110;2023-11-18T03:35:44;102710.78;;;19.91;100.00
73240;BME280;61452;40.054;4.110;2023-11-18T03:40:46;102715.59;;;19.84;100.00
73240;BME280;61452;40.054;4.110;2023-11-18T03:45:48;102716.97;;;19.91;100.00
73240;BME280;61452;40.054;4.110;2023-11-18T03:50:50;102695.81;;;19.88;100.00
73240;BME280;61452;40.054;4.110;2023-11-18T03:55:52;102705.38;;;19.92;100.00
73240;BME280;61452;40.054;4.110;2023-11-18T04:00:55;102702.19;;;19.86;100.00
73240;BME280;61452;40.054;4.110;2023-11-18T04:05:59;102706.38;;;19.90;100.00
73240;BME280;61452;40.054;4.110;2023-11-18T04:11:01;102716.03;;;19.92;100.00
73240;BME280;61452;40.054;4.110;2023-11-18T04:16:05;102707.19;;;19.92;100.00
73240;BME280;61452;40.054;4.110;2023-11-18T04:21:11;102708.78;;;19.94;100.00
73240;BME280;61452;40.054;4.110;2023-11-18T04:26:15;102712.41;;;19.93;100.00
73240;BME280;61452;40.054;4.110;2023-11-18T04:31:17;102705.88;;;19.83;100.00
73240;BME280;61452;40.054;4.110;2023-11-18T04:36:19;102689.28;;;19.94;100.00
73240;BME280;61452;40.054;4.110;2023-11-18T04:41:23;102691.34;;;19.89;100.00
73240;BME280;61452;40.054;4.110;2023-11-18T04:46:26;102703.47;;;19.94;100.00
73240;BME280;61452;40.054;4.110;2023-11-18T04:51:28;102695.47;;;19.94;100.00
73240;BME280;61452;40.054;4.110;2023-11-18T04:56:30;102683.94;;;19.94;100.00
73240;BME280;61452;40.054;4.110;2023-11-18T05:01:33;102691.19;;;19.92;100.00
73240;BME280;61452;40.054;4.110;2023-11-18T05:06:35;102698.13;;;19.94;100.00
73240;BME280;61452;40.054;4.110;2023-11-18T05:11:37;102695.47;;;19.94;100.00
73240;BME280;61452;40.054;4.110;2023-11-18T05:16:40;102694.78;;;19.91;100.00
73240;BME280;61452;40.054;4.110;2023-11-18T05:21:43;102703.66;;;19.91;100.00
73240;BME280;61452;40.054;4.110;2023-11-18T05:26:51;102708.13;;;19.91;100.00
73240;BME280;61452;40.054;4.110;2023-11-18T05:31:54;102707.91;;;19.94;100.00
73240;BME280;61452;40.054;4.110;2023-11-18T05:36:57;102703.66;;;19.91;100.00
73240;BME280;61452;40.054;4.110;2023-11-18T05:42:01;102716.88;;;19.93;100.00
73240;BME280;61452;40.054;4.110;2023-11-18T05:47:03;102727.34;;;19.96;100.00
73240;BME280;61452;40.054;4.110;2023-11-18T05:52:05;102715.09;;;19.93;100.00
73240;BME280;61452;40.054;4.110;2023-11-18T05:57:08;102719.44;;;19.94;100.00
73240;BME280;61452;40.054;4.110;2023-11-18T06:02:10;102714.38;;;19.90;100.00
73240;BME280;61452;40.054;4.110;2023-11-18T06:07:20;102714.31;;;19.91;100.00
73240;BME280;61452;40.054;4.110;2023-11-18T06:12:22;102717.91;;;19.90;100.00
73240;BME280;61452;40.054;4.110;2023-11-18T06:17:24;102714.31;;;19.91;100.00
73240;BME280;61452;40.054;4.110;2023-11-18T06:22:27;102714.31;;;19.91;100.00
73240;BME280;61452;40.054;4.110;2023-11-18T06:27:29;102726.56;;;19.94;100.00
73240;BME280;61452;40.054;4.110;2023-11-18T06:32:31;102732.75;;;19.94;100.00
73240;BME280;61452;40.054;4.110;2023-11-18T06:37:33;102741.00;;;19.90;100.00
73240;BME280;61452;40.054;4.110;2023-11-18T06:42:35;102744.63;;;19.89;100.00
73240;BME280;61452;40.054;4.110;2023-11-18T06:47:41;102742.06;;;19.87;100.00
73240;BME280;61452;40.054;4.110;2023-11-18T06:52:47;102750.47;;;19.95;100.00
73240;BME280;61452;40.054;4.110;2023-11-18T06:57:50;102754.94;;;19.95;100.00
73240;BME280;61452;40.054;4.110;2023-11-18T07:02:52;102754.53;;;19.87;100.00
73240;BME280;61452;40.054;4.110;2023-11-18T07:07:56;102759.41;;;19.94;100.00
73240;BME280;61452;40.054;4.110;2023-11-18T07:12:59;102766.78;;;19.89;100.00
73240;BME280;61452;40.054;4.110;2023-11-18T07:18:02;102762.16;;;19.93;100.00
73240;BME280;61452;40.054;4.110;2023-11-18T07:23:04;102759.50;;;19.93;100.00
73240;BME280;61452;40.054;4.110;2023-11-18T07:28:07;102764.19;;;19.88;100.00
73240;BME280;61452;40.054;4.110;2023-11-18T07:33:10;102774.19;;;19.84;100.00
73240;BME280;61452;40.054;4.110;2023-11-18T07:38:13;102780.44;;;19.83;100.00
73240;BME280;61452;40.054;4.110;2023-11-18T07:43:15;102782.78;;;19.89;100.00
73240;BME280;61452;40.054;4.110;2023-11-18T07:48:17;102806.22;;;19.83;100.00
73240;BME280;61452;40.054;4.110;2023-11-18T07:53:20;102806.41;;;19.79;100.00
73240;BME280;61452;40.054;4.110;2023-11-18T07:58:22;102810.78;;;19.81;100.00
73240;BME280;61452;40.054;4.110;2023-11-18T08:03:25;102819.53;;;19.83;100.00
73240;BME280;61452;40.054;4.110;2023-11-18T08:08:27;102827.63;;;19.81;100.00
73240;BME280;61452;40.054;4.110;2023-11-18T08:13:29;102831.75;;;19.87;100.00
73240;BME280;61452;40.054;4.110;2023-11-18T08:18:31;102829.97;;;19.87;100.00
73240;BME280;61452;40.054;4.110;2023-11-18T08:23:33;102844.44;;;19.82;100.00
73240;BME280;61452;40.054;4.110;2023-11-18T08:28:36;102857.94;;;19.78;100.00
73240;BME280;61452;40.054;4.110;2023-11-18T08:33:38;102848.16;;;19.79;100.00
73240;BME280;61452;40.054;4.110;2023-11-18T08:38:40;102854.16;;;19.83;100.00
73240;BME280;61452;40.054;4.110;2023-11-18T08:43:46;102865.94;;;19.78;100.00
73240;BME280;61452;40.054;4.110;2023-11-18T08:48:51;102869.47;;;19.79;100.00
73240;BME280;61452;40.054;4.110;2023-11-18T08:53:53;102869.97;;;19.86;100.00
73240;BME280;61452;40.054;4.110;2023-11-18T08:58:56;102880.09;;;19.79;100.00
73240;BME280;61452;40.054;4.110;2023-11-18T09:04:01;102876.59;;;19.78;100.00
73240;BME280;61452;40.054;4.110;2023-11-18T09:09:03;102872.25;;;19.76;100.00
73240;BME280;61452;40.054;4.110;2023-11-18T09:14:11;102874.00;;;19.77;100.00
73240;BME280;61452;40.054;4.110;2023-11-18T09:19:14;102864.28;;;19.76;100.00
73240;BME280;61452;40.054;4.110;2023-11-18T09:24:16;102872.19;;;19.77;100.00
73240;BME280;61452;40.054;4.110;2023-11-18T09:29:21;102874.00;;;19.77;100.00
73240;BME280;61452;40.054;4.110;2023-11-18T09:34:28;102882.06;;;19.75;100.00
73240;BME280;61452;40.054;4.110;2023-11-18T09:39:35;102874.19;;;19.74;100.00
73240;BME280;61452;40.054;4.110;2023-11-18T09:44:40;102884.72;;;19.75;100.00
73240;BME280;61452;40.054;4.110;2023-11-18T09:49:49;102878.47;;;19.76;100.00
73240;BME280;61452;40.054;4.110;2023-11-18T09:55:11;102879.31;;;19.77;100.00
73240;BME280;61452;40.054;4.110;2023-11-18T10:00:21;102881.13;;;19.76;100.00
73240;BME280;61452;40.054;4.110;2023-11-18T10:05:31;102881.97;;;19.77;100.00
73240;BME280;61452;40.054;4.110;2023-11-18T10:10:36;102877.53;;;19.77;100.00
73240;BME280;61452;40.054;4.110;2023-11-18T10:15:39;102882.91;;;19.76;100.00
73240;BME280;61452;40.054;4.110;2023-11-18T10:25:54;102885.50;;;19.77;100.00
73240;BME280;61452;40.054;4.110;2023-11-18T10:36:01;102874.06;;;19.75;100.00
73240;BME280;61452;40.054;4.110;2023-11-18T10:41:06;102874.00;;;19.77;100.00
73240;BME280;61452;40.054;4.110;2023-11-18T10:46:09;102866.94;;;19.76;100.00
73240;BME280;61452;40.054;4.110;2023-11-18T10:51:20;102860.75;;;19.75;100.00
73240;BME280;61452;40.054;4.110;2023-11-18T10:56:25;102853.41;;;19.81;100.00
73240;BME280;61452;40.054;4.110;2023-11-18T11:01:37;102839.38;;;19.77;100.00
73240;BME280;61452;40.054;4.110;2023-11-18T11:06:47;102826.06;;;19.77;100.00
73240;BME280;61452;40.054;4.110;2023-11-18T11:11:56;102827.09;;;19.74;100.00
73240;BME280;61452;40.054;4.110;2023-11-18T11:17:07;102812.81;;;19.75;100.00
73240;BME280;61452;40.054;4.110;2023-11-18T11:22:15;102803.97;;;19.75;100.00
73240;BME280;61452;40.054;4.110;2023-11-18T11:27:33;102799.50;;;19.75;100.00
73240;BME280;61452;40.054;4.110;2023-11-18T11:32:47;102799.50;;;19.75;100.00
73240;BME280;61452;40.054;4.110;2023-11-18T11:37:54;102797.69;;;19.76;100.00
73240;BME280;61452;40.054;4.110;2023-11-18T11:43:08;102790.56;;;19.76;100.00
73240;BME280;61452;40.054;4.110;2023-11-18T11:48:15;102772.00;;;19.75;100.00
73240;BME280;61452;40.054;4.110;2023-11-18T11:53:22;102765.75;;;19.76;100.00
73240;BME280;61452;40.054;4.110;2023-11-18T11:58:30;102766.59;;;19.76;100.00
73240;BME280;61452;40.054;4.110;2023-11-18T12:03:41;102763.94;;;19.76;100.00
73240;BME280;61452;40.054;4.110;2023-11-18T12:08:47;102764.88;;;19.75;100.00
73240;BME280;61452;40.054;4.110;2023-11-18T12:14:07;102755.97;;;19.76;100.00
73240;BME280;61452;40.054;4.110;2023-11-18T12:35:29;102734.59;;;19.78;100.00
73240;BME280;61452;40.054;4.110;2023-11-18T12:40:53;102733.72;;;19.77;100.00
73240;BME280;61452;40.054;4.110;2023-11-18T12:46:34;102736.31;;;19.79;100.00
73240;BME280;61452;40.054;4.110;2023-11-18T12:51:47;102746.94;;;19.79;100.00
73240;BME280;61452;40.054;4.110;2023-11-18T12:56:49;102739.75;;;19.81;100.00
73240;BME280;61452;40.054;4.110;2023-11-18T13:01:55;102734.16;;;19.86;100.00
73240;BME280;61452;40.054;4.110;2023-11-18T13:07:00;102733.28;;;19.85;100.00
73240;BME280;61452;40.054;4.110;2023-11-18T13:12:05;102728.03;;;19.84;100.00
73240;BME280;61452;40.054;4.110;2023-11-18T13:17:15;102726.09;;;19.87;100.00
73240;BME280;61452;40.054;4.110;2023-11-18T13:22:18;102732.59;;;19.82;100.00
73240;BME280;61452;40.054;4.110;2023-11-18T13:27:36;102731.41;;;19.87;100.00
73240;BME280;61452;40.054;4.110;2023-11-18T13:32:41;102727.19;;;19.83;100.00
73240;BME280;61452;40.054;4.110;2023-11-18T13:37:46;102728.03;;;19.84;100.00
73240;BME280;61452;40.054;4.110;2023-11-18T13:43:01;102728.63;;;19.89;100.00
73240;BME280;61452;40.054;4.110;2023-11-18T13:48:05;102725.03;;;19.90;100.00
73240;BME280;61452;40.054;4.110;2023-11-18T13:53:07;102731.56;;;19.84;100.00
73240;BME280;61452;40.054;4.110;2023-11-18T13:58:10;102729.78;;;19.85;100.00
73240;BME280;61452;40.054;4.110;2023-11-18T14:03:12;102728.63;;;19.89;100.00
73240;BME280;61452;40.054;4.110;2023-11-18T14:08:18;102725.91;;;19.90;100.00
73240;BME280;61452;40.054;4.110;2023-11-18T14:13:21;102725.22;;;19.87;100.00
73240;BME280;61452;40.054;4.110;2023-11-18T14:18:24;102715.59;;;19.84;100.00
73240;BME280;61452;40.054;4.110;2023-11-18T14:23:26;102723.59;;;19.84;100.00
73240;BME280;61452;40.054;4.110;2023-11-18T14:28:28;102720.91;;;19.84;100.00
73240;BME280;61452;40.054;4.110;2023-11-18T14:33:30;102725.91;;;19.90;100.00
73240;BME280;61452;40.054;4.110;2023-11-18T14:38:35;102723.59;;;19.84;100.00
73240;BME280;61452;40.054;4.110;2023-11-18T14:43:38;102719.97;;;19.85;100.00
73240;BME280;61452;40.054;4.110;2023-11-18T14:48:42;102723.22;;;19.90;100.00
73240;BME280;61452;40.054;4.110;2023-11-18T14:53:44;102723.50;;;19.86;100.00
73240;BME280;61452;40.054;4.110;2023-11-18T14:58:46;102730.28;;;19.91;100.00
73240;BME280;61452;40.054;4.110;2023-11-18T15:03:51;102738.28;;;19.91;100.00
73240;BME280;61452;40.054;4.110;2023-11-18T15:08:53;102747.47;;;19.86;100.00
73240;BME280;61452;40.054;4.110;2023-11-18T15:13:59;102740.94;;;19.91;100.00
73240;BME280;61452;40.054;4.110;2023-11-18T15:19:01;102754.25;;;19.91;100.00
73240;BME280;61452;40.054;4.110;2023-11-18T15:24:04;102760.38;;;19.93;100.00
73240;BME280;61452;40.054;4.110;2023-11-18T15:29:06;102743.53;;;19.93;100.00
73240;BME280;61452;40.054;4.110;2023-11-18T15:34:16;102736.56;;;19.90;100.00
73240;BME280;61452;40.054;4.110;2023-11-18T15:39:18;102736.56;;;19.90;100.00
73240;BME280;61452;40.054;4.110;2023-11-18T15:44:20;102745.75;;;19.85;100.00
73240;BME280;61452;40.054;4.110;2023-11-18T15:49:23;102747.19;;;19.90;100.00
73240;BME280;61452;40.054;4.110;2023-11-18T15:54:26;102741.81;;;19.92;100.00
73240;BME280;61452;40.054;4.110;2023-11-18T15:59:29;102740.94;;;19.91;100.00
73240;BME280;61452;40.054;4.110;2023-11-18T16:04:32;102731.22;;;19.90;100.00
73240;BME280;61452;40.054;4.110;2023-11-18T16:09:34;102732.00;;;19.92;100.00
73240;BME280;61452;40.054;4.110;2023-11-18T16:14:36;102732.09;;;19.91;100.00
73240;BME280;61452;40.054;4.110;2023-11-18T16:19:39;102739.13;;;19.92;100.00
73240;BME280;61452;40.054;4.110;2023-11-18T16:24:41;102733.81;;;19.92;100.00
73240;BME280;61452;40.054;4.110;2023-11-18T16:29:43;102739.13;;;19.92;100.00
73240;BME280;61452;40.054;4.110;2023-11-18T16:34:58;102745.31;;;19.92;100.00
73240;BME280;61452;40.054;4.110;2023-11-18T16:40:00;102745.22;;;19.94;100.00
73240;BME280;61452;40.054;4.110;2023-11-18T16:45:03;102747.13;;;19.92;100.00
73240;BME280;61452;40.054;4.110;2023-11-18T16:50:09;102756.06;;;19.91;100.00
73240;BME280;61452;40.054;4.110;2023-11-18T16:55:16;102760.38;;;19.93;100.00
73240;BME280;61452;40.054;4.110;2023-11-18T17:00:18;102758.63;;;19.92;100.00
73240;BME280;61452;40.054;4.110;2023-11-18T17:05:27;102757.25;;;19.85;100.00
73240;BME280;61452;40.054;4.110;2023-11-18T17:10:33;102751.06;;;19.85;100.00
73240;BME280;61452;40.054;4.110;2023-11-18T17:15:35;102752.78;;;19.86;100.00
73240;BME280;61452;40.054;4.110;2023-11-18T17:20:37;102758.19;;;19.84;100.00
73240;BME280;61452;40.054;4.110;2023-11-18T17:25:39;102751.00;;;19.86;100.00
73240;BME280;61452;40.054;4.110;2023-11-18T17:30:43;102754.59;;;19.85;100.00
73240;BME280;61452;40.054;4.110;2023-11-18T17:35:45;102746.59;;;19.85;100.00
73240;BME280;61452;40.054;4.110;2023-11-18T17:40:48;102744.81;;;19.86;100.00
73240;BME280;61452;40.054;4.110;2023-11-18T17:45:51;102749.28;;;19.85;100.00
73240;BME280;61452;40.054;4.110;2023-11-18T17:50:53;102751.94;;;19.85;100.00
73240;BME280;61452;40.054;4.110;2023-11-18T17:55:57;102758.13;;;19.86;100.00
73240;BME280;61452;40.054;4.110;2023-11-18T18:01:00;102755.47;;;19.86;100.00
73240;BME280;61452;40.054;4.110;2023-11-18T18:06:03;102765.25;;;19.85;100.00
73240;BME280;61452;40.054;4.110;2023-11-18T18:11:12;102758.13;;;19.86;100.00
73240;BME280;61452;40.054;4.110;2023-11-18T18:16:14;102756.31;;;19.86;100.00
73240;BME280;61452;40.054;4.110;2023-11-18T18:21:16;102766.78;;;19.89;100.00
73240;BME280;61452;40.054;4.110;2023-11-18T18:26:18;102767.91;;;19.85;100.00
73240;BME280;61452;40.054;4.110;2023-11-18T18:31:22;102772.03;;;19.91;100.00
73240;BME280;61452;40.054;4.110;2023-11-18T18:36:24;102756.91;;;19.91;100.00
73240;BME280;61452;40.054;4.110;2023-11-18T18:41:26;102757.94;;;19.89;100.00
73240;BME280;61452;40.054;4.110;2023-11-18T18:46:28;102762.25;;;19.91;100.00
73240;BME280;61452;40.054;4.110;2023-11-18T18:51:30;102756.06;;;19.91;100.00
73240;BME280;61452;40.054;4.110;2023-11-18T18:56:33;102763.09;;;19.92;100.00
73240;BME280;61452;40.054;4.110;2023-11-18T19:01:35;102759.66;;;19.90;100.00
73240;BME280;61452;40.054;4.110;2023-11-18T19:06:38;102763.09;;;19.92;100.00
73240;BME280;61452;40.054;4.110;2023-11-18T19:11:40;102765.25;;;19.85;100.00
73240;BME280;61452;40.054;4.110;2023-11-18T19:16:43;102768.84;;;19.84;100.00
73240;BME280;61452;40.054;4.110;2023-11-18T19:21:45;102764.13;;;19.89;100.00
73240;BME280;61452;40.054;4.110;2023-11-18T19:26:52;102764.03;;;19.91;100.00
73240;BME280;61452;40.054;4.110;2023-11-18T19:31:56;102759.66;;;19.90;100.00
73240;BME280;61452;40.054;4.110;2023-11-18T19:36:58;102760.88;;;19.84;100.00
73240;BME280;61452;40.054;4.110;2023-11-18T19:42:00;102743.34;;;19.80;100.00
73240;BME280;61452;40.054;4.110;2023-11-18T19:47:03;102735.88;;;19.87;100.00
73240;BME280;61452;40.054;4.110;2023-11-18T19:52:05;102727.25;;;19.82;100.00
73240;BME280;61452;40.054;4.110;2023-11-18T19:57:09;102724.25;;;19.88;100.00
73240;BME280;61452;40.054;4.110;2023-11-18T20:02:11;102712.66;;;19.89;100.00
73240;BME280;61452;40.054;4.110;2023-11-18T20:07:13;102719.19;;;19.83;100.00
73240;BME280;61452;40.054;4.110;2023-11-18T20:12:15;102713.53;;;19.89;100.00
73240;BME280;61452;40.054;4.110;2023-11-18T20:17:17;102705.53;;;19.89;100.00
73240;BME280;61452;40.054;4.110;2023-11-18T20:22:19;102706.47;;;19.88;100.00
73240;BME280;61452;40.054;4.110;2023-11-18T20:27:22;102694.22;;;19.86;100.00
73240;BME280;61452;40.054;4.110;2023-11-18T20:32:24;102703.22;;;19.83;100.00
73240;BME280;61452;40.054;4.110;2023-11-18T20:37:26;102696.09;;;19.84;100.00
73240;BME280;61452;40.054;4.110;2023-11-18T20:42:29;102691.69;;;19.83;100.00
73240;BME280;61452;40.054;4.110;2023-11-18T20:47:31;102693.50;;;19.82;100.00
73240;BME280;61452;40.054;4.110;2023-11-18T20:52:33;102681.16;;;19.81;100.00
73240;BME280;61452;40.054;4.110;2023-11-18T20:57:36;102690.84;;;19.82;100.00
73240;BME280;61452;40.054;4.110;2023-11-18T21:02:38;102690.59;;;19.87;100.00
73240;BME280;61452;40.054;4.110;2023-11-18T21:07:40;102688.81;;;19.87;100.00
73240;BME280;61452;40.054;4.110;2023-11-18T21:12:43;102683.34;;;19.89;100.00
73240;BME280;61452;40.054;4.110;2023-11-18T21:17:45;102684.22;;;19.89;100.00
73240;BME280;61452;40.054;4.110;2023-11-18T21:22:48;102676.66;;;19.82;100.00
73240;BME280;61452;40.054;4.110;2023-11-18T21:27:51;102675.06;;;19.79;100.00
73240;BME280;61452;40.054;4.110;2023-11-18T21:32:53;102670.25;;;19.86;100.00
73240;BME280;61452;40.054;4.110;2023-11-18T21:37:57;102668.50;;;19.85;100.00
73240;BME280;61452;40.054;4.110;2023-11-18T21:43:00;102666.78;;;19.84;100.00
73240;BME280;61452;40.054;4.110;2023-11-18T21:48:03;102669.28;;;19.87;100.00
73240;BME280;61452;40.054;4.110;2023-11-18T21:53:06;102659.50;;;19.87;100.00
73240;BME280;61452;40.054;4.110;2023-11-18T21:58:08;102657.78;;;19.86;100.00
73240;BME280;61452;40.054;4.110;2023-11-18T22:03:10;102653.31;;;19.87;100.00
73240;BME280;61452;40.054;4.110;2023-11-18T22:08:14;102655.56;;;19.78;100.00
73240;BME280;61452;40.054;4.110;2023-11-18T22:13:21;102654.03;;;19.74;100.00
73240;BME280;61452;40.054;4.110;2023-11-18T22:18:23;102652.97;;;19.77;100.00
73240;BME280;61452;40.054;4.110;2023-11-18T22:23:26;102649.00;;;19.84;100.00
73240;BME280;61452;40.054;4.110;2023-11-18T22:28:28;102654.69;;;19.78;100.00
73240;BME280;61452;40.054;4.110;2023-11-18T22:33:34;102655.28;;;19.83;100.00
73240;BME280;61452;40.054;4.110;2023-11-18T22:38:40;102654.69;;;19.78;100.00
73240;BME280;61452;40.054;4.110;2023-11-18T22:43:43;102660.88;;;19.78;100.00
73240;BME280;61452;40.054;4.110;2023-11-18T22:48:45;102659.16;;;19.77;100.00
73240;BME280;61452;40.054;4.110;2023-11-18T22:53:48;102663.63;;;19.77;100.00
73240;BME280;61452;40.054;4.110;2023-11-18T22:58:52;102661.81;;;19.77;100.00
73240;BME280;61452;40.054;4.110;2023-11-18T23:03:55;102647.13;;;19.70;100.00
73240;BME280;61452;40.054;4.110;2023-11-18T23:09:00;102654.84;;;19.75;100.00
73240;BME280;61452;40.054;4.110;2023-11-18T23:14:02;102648.84;;;19.71;100.00
73240;BME280;61452;40.054;4.110;2023-11-18T23:19:05;102651.16;;;19.77;100.00
73240;BME280;61452;40.054;4.110;2023-11-18T23:24:09;102648.59;;;19.76;100.00
73240;BME280;61452;40.054;4.110;2023-11-18T23:29:12;102645.91;;;19.76;100.00
73240;BME280;61452;40.054;4.110;2023-11-18T23:34:14;102649.53;;;19.75;100.00
73240;BME280;61452;40.054;4.110;2023-11-18T23:39:16;102646.97;;;19.73;100.00
73240;BME280;61452;40.054;4.110;2023-11-18T23:44:18;102645.91;;;19.76;100.00
73240;BME280;61452;40.054;4.110;2023-11-18T23:49:20;102643.19;;;19.77;100.00
73240;BME280;61452;40.054;4.110;2023-11-18T23:54:25;102640.72;;;19.74;100.00
73240;BME280;61452;40.054;4.110;2023-11-18T23:59:26;102628.84;;;19.80;100.00
